createdAt,value
2022-09-28T00:02:57.667Z,1.17
2022-09-28T00:06:05.773Z,1.55
2022-09-28T00:09:08.074Z,1.12
2022-09-28T00:12:10.372Z,1.23
2022-09-28T00:15:12.559Z,1.10
2022-09-28T00:18:14.734Z,1.27
2022-09-28T00:21:19.542Z,1.23
2022-09-28T00:24:26.686Z,0.90
2022-09-28T00:27:30.098Z,1.30
2022-09-28T00:30:32.235Z,1.12
2022-09-28T00:33:34.441Z,1.30
2022-09-28T00:36:36.762Z,1.48
2022-09-28T00:39:41.350Z,1.30
2022-09-28T00:42:45.091Z,1.23
2022-09-28T00:45:56.663Z,1.35
2022-09-28T00:49:07.548Z,1.60
2022-09-28T00:52:13.167Z,1.20
2022-09-28T00:55:18.232Z,1.50
2022-09-28T00:58:28.285Z,1.30
2022-09-28T01:01:30.716Z,1.30
2022-09-28T01:04:32.889Z,1.37
2022-09-28T01:07:35.527Z,1.10
2022-09-28T01:10:39.724Z,1.15
2022-09-28T01:13:42.221Z,1.40
2022-09-28T01:16:52.226Z,1.20
2022-09-28T01:20:13.275Z,1.48
2022-09-28T01:23:39.868Z,1.50
2022-09-28T01:26:52.161Z,1.35
2022-09-28T01:30:07.659Z,1.35
2022-09-28T01:33:14.709Z,1.37
2022-09-28T01:36:24.196Z,1.00
2022-09-28T01:39:30.953Z,1.23
2022-09-28T01:42:34.618Z,1.30
2022-09-28T01:45:55.212Z,1.00
2022-09-28T01:48:58.710Z,1.23
2022-09-28T01:52:20.527Z,1.27
2022-09-28T01:55:34.536Z,1.02
2022-09-28T01:58:45.368Z,1.35
2022-09-28T02:02:07.803Z,1.00
2022-09-28T02:05:23.605Z,0.95
2022-09-28T02:08:29.319Z,1.05
2022-09-28T02:11:33.363Z,0.90
2022-09-28T02:14:38.324Z,0.80
2022-09-28T02:17:41.077Z,1.35
2022-09-28T02:20:48.706Z,1.00
2022-09-28T02:24:03.855Z,0.80
2022-09-28T02:27:13.861Z,1.00
2022-09-28T02:30:17.934Z,0.98
2022-09-28T02:33:32.113Z,0.88
2022-09-28T02:36:34.460Z,1.02
2022-09-28T02:39:36.583Z,0.93
2022-09-28T02:42:52.937Z,1.15
2022-09-28T02:46:16.947Z,1.02
2022-09-28T02:49:27.776Z,0.90
2022-09-28T02:52:49.423Z,1.23
2022-09-28T02:55:59.196Z,1.00
2022-09-28T02:59:40.254Z,0.90
2022-09-28T03:02:54.456Z,0.80
2022-09-28T03:06:22.658Z,1.17
2022-09-28T03:09:34.392Z,1.17
2022-09-28T03:12:37.474Z,1.10
2022-09-28T03:15:40.706Z,0.90
2022-09-28T03:18:44.228Z,0.80
2022-09-28T03:21:46.425Z,1.10
2022-09-28T03:24:48.626Z,1.10
2022-09-28T03:27:50.851Z,0.90
2022-09-28T03:30:53.099Z,1.08
2022-09-28T03:33:55.852Z,1.10
2022-09-28T03:36:58.068Z,1.17
2022-09-28T03:40:00.394Z,1.00
2022-09-28T03:43:02.628Z,1.10
2022-09-28T03:46:04.970Z,1.10
2022-09-28T03:49:07.315Z,1.35
2022-09-28T03:52:10.053Z,1.00
2022-09-28T03:55:12.477Z,1.10
2022-09-28T03:58:17.642Z,3.92
2022-09-28T04:01:19.860Z,2.30
2022-09-28T04:04:22.196Z,4.10
2022-09-28T04:07:26.940Z,3.70
2022-09-28T04:10:32.474Z,2.20
2022-09-28T04:13:34.751Z,2.22
2022-09-28T04:16:36.950Z,2.30
2022-09-28T04:19:39.357Z,3.03
2022-09-28T04:22:41.832Z,2.10
2022-09-28T04:25:47.836Z,3.05
2022-09-28T04:29:08.976Z,2.22
2022-09-28T04:32:11.988Z,2.72
2022-09-28T04:35:14.450Z,6.03
2022-09-28T04:38:23.476Z,4.18
2022-09-28T04:41:33.310Z,2.87
2022-09-28T04:44:35.461Z,2.97
2022-09-28T04:47:37.663Z,5.22
2022-09-28T04:50:39.821Z,7.15
2022-09-28T04:53:41.994Z,6.57
2022-09-28T04:56:44.221Z,4.15
2022-09-28T04:59:46.380Z,4.40
2022-09-28T05:02:48.526Z,3.72
2022-09-28T05:05:50.769Z,3.58
2022-09-28T05:08:53.959Z,2.87
2022-09-28T05:11:56.127Z,3.10
2022-09-28T05:14:58.346Z,3.55
2022-09-28T05:18:00.515Z,3.20
2022-09-28T05:21:02.764Z,3.33
2022-09-28T05:24:07.569Z,3.80
2022-09-28T05:27:09.975Z,3.62
2022-09-28T05:30:12.661Z,3.83
2022-09-28T05:33:14.818Z,3.12
2022-09-28T05:36:16.944Z,3.00
2022-09-28T05:39:19.096Z,2.40
2022-09-28T05:42:21.216Z,2.85
2022-09-28T05:45:23.355Z,3.62
2022-09-28T05:48:25.758Z,2.85
2022-09-28T05:51:27.920Z,2.62
2022-09-28T05:54:30.089Z,2.17
2022-09-28T05:57:32.219Z,2.03
2022-09-28T06:00:35.659Z,2.03
2022-09-28T06:03:37.839Z,1.75
2022-09-28T06:06:40.316Z,2.05
2022-09-28T06:09:42.518Z,2.08
2022-09-28T06:12:45.603Z,2.37
2022-09-28T06:15:47.792Z,1.50
2022-09-28T06:18:49.952Z,1.70
2022-09-28T06:21:52.085Z,1.58
2022-09-28T06:24:54.232Z,1.37
2022-09-28T06:28:06.644Z,1.25
2022-09-28T06:31:08.960Z,1.37
2022-09-28T06:34:12.472Z,1.40
2022-09-28T06:37:14.689Z,1.42
2022-09-28T06:40:17.543Z,1.75
2022-09-28T06:43:19.681Z,1.95
2022-09-28T06:46:22.186Z,1.75
2022-09-28T06:49:25.768Z,1.20
2022-09-28T06:52:28.023Z,1.20
2022-09-28T06:55:30.629Z,0.90
2022-09-28T06:58:32.790Z,1.20
2022-09-28T07:01:34.997Z,0.90
2022-09-28T07:04:37.270Z,0.90
2022-09-28T07:07:40.611Z,1.42
2022-09-28T07:10:47.506Z,1.12
2022-09-28T07:13:51.380Z,0.80
2022-09-28T07:17:12.628Z,0.90
2022-09-28T07:20:19.476Z,1.00
2022-09-28T07:23:21.992Z,0.80
2022-09-28T07:26:24.847Z,0.70
2022-09-28T07:29:27.095Z,0.70
2022-09-28T07:35:36.415Z,1.23
2022-09-28T07:38:38.576Z,0.95
2022-09-28T07:41:41.469Z,1.23
2022-09-28T07:44:43.615Z,0.60
2022-09-28T07:47:45.914Z,0.65
2022-09-28T07:50:56.708Z,0.77
2022-09-28T07:53:59.231Z,0.65
2022-09-28T07:57:01.351Z,0.60
2022-09-28T08:00:07.080Z,1.17
2022-09-28T08:03:09.272Z,0.90
2022-09-28T08:06:12.849Z,0.80
2022-09-28T08:09:15.215Z,1.00
2022-09-28T08:12:19.716Z,0.90
2022-09-28T08:15:22.579Z,1.10
2022-09-28T08:18:24.741Z,0.90
2022-09-28T08:21:45.234Z,0.70
2022-09-28T08:24:47.859Z,0.90
2022-09-28T08:27:49.993Z,0.80
2022-09-28T08:30:52.631Z,0.90
2022-09-28T08:33:55.332Z,1.17
2022-09-28T08:36:57.500Z,0.93
2022-09-28T08:39:59.789Z,1.23
2022-09-28T08:43:06.548Z,1.30
2022-09-28T08:46:09.707Z,1.00
2022-09-28T08:49:30.104Z,1.35
2022-09-28T08:52:38.341Z,1.23
2022-09-28T08:55:40.547Z,1.20
2022-09-28T08:58:44.946Z,1.87
2022-09-28T09:01:57.733Z,1.30
2022-09-28T09:05:06.223Z,1.30
2022-09-28T09:08:20.233Z,1.37
2022-09-28T09:11:40.632Z,1.87
2022-09-28T09:14:51.854Z,1.10
2022-09-28T09:21:16.758Z,1.30
2022-09-28T09:24:27.403Z,1.00
2022-09-28T09:27:38.037Z,1.15
2022-09-28T09:31:00.592Z,1.12
2022-09-28T09:34:18.378Z,1.17
2022-09-28T09:37:20.569Z,1.30
2022-09-28T09:40:42.000Z,1.00
2022-09-28T09:43:49.984Z,2.00
2022-09-28T09:47:02.035Z,1.42
2022-09-28T09:50:45.290Z,1.75
2022-09-28T09:54:21.334Z,3.58
2022-09-28T09:57:30.049Z,2.45
2022-09-28T10:00:33.501Z,1.60
2022-09-28T10:03:40.536Z,0.98
2022-09-28T10:06:43.752Z,1.48
2022-09-28T10:09:46.579Z,4.85
2022-09-28T10:12:50.046Z,3.35
2022-09-28T10:15:52.940Z,1.92
2022-09-28T10:18:55.074Z,2.78
2022-09-28T10:21:59.972Z,2.10
2022-09-28T10:25:02.348Z,1.25
2022-09-28T10:28:10.252Z,1.00
2022-09-28T10:31:43.568Z,3.03
2022-09-28T10:34:50.209Z,2.08
2022-09-28T10:38:06.862Z,1.12
2022-09-28T10:41:10.502Z,1.00
2022-09-28T10:44:17.811Z,2.65
2022-09-28T10:47:22.465Z,1.70
2022-09-28T10:50:26.846Z,5.47
2022-09-28T10:53:29.005Z,2.40
2022-09-28T10:56:37.113Z,3.12
2022-09-28T10:59:41.243Z,2.78
2022-09-28T11:02:43.490Z,1.17
2022-09-28T11:06:19.703Z,2.30
2022-09-28T11:09:33.597Z,1.65
2022-09-28T11:12:42.107Z,1.80
2022-09-28T11:15:44.478Z,2.00
2022-09-28T11:18:46.742Z,4.07
2022-09-28T11:21:48.884Z,3.30
2022-09-28T11:24:51.032Z,2.58
2022-09-28T11:27:53.138Z,2.47
2022-09-28T11:30:55.618Z,1.80
2022-09-28T11:34:12.804Z,3.00
2022-09-28T11:37:42.938Z,1.45
2022-09-28T11:41:03.911Z,1.20
2022-09-28T11:44:18.378Z,1.10
2022-09-28T11:47:35.755Z,1.10
2022-09-28T11:50:46.764Z,0.75
2022-09-28T11:54:14.534Z,1.48
2022-09-28T11:57:24.001Z,1.00
2022-09-28T12:00:26.572Z,1.00
2022-09-28T12:03:48.666Z,1.87
2022-09-28T12:06:54.053Z,1.60
2022-09-28T12:10:28.654Z,1.83
2022-09-28T12:13:34.292Z,1.00
2022-09-28T12:20:16.765Z,0.73
2022-09-28T12:23:33.893Z,0.90
2022-09-28T12:26:55.260Z,0.95
2022-09-28T12:33:09.287Z,1.30
2022-09-28T12:36:42.628Z,0.57
2022-09-28T12:40:03.431Z,0.80
2022-09-28T12:43:05.680Z,0.80
2022-09-28T12:46:16.775Z,0.60
2022-09-28T12:53:16.599Z,0.77
2022-09-28T12:56:28.224Z,0.90
2022-09-28T12:59:53.569Z,0.68
2022-09-28T13:03:37.851Z,0.62
2022-09-28T13:07:00.220Z,0.70
2022-09-28T13:10:17.578Z,0.50
2022-09-28T13:13:39.110Z,0.80
2022-09-28T13:17:00.415Z,1.02
2022-09-28T13:20:21.173Z,0.90
2022-09-28T13:23:39.768Z,0.70
2022-09-28T13:26:44.824Z,0.60
2022-09-28T13:29:49.200Z,0.80
2022-09-28T13:32:51.811Z,0.57
2022-09-28T13:35:54.018Z,0.60
2022-09-28T13:39:00.359Z,0.93
2022-09-28T13:42:02.730Z,0.50
2022-09-28T13:45:23.662Z,0.60
2022-09-28T13:48:48.560Z,0.50
2022-09-28T13:51:55.376Z,0.55
2022-09-28T13:55:24.957Z,0.70
2022-09-28T13:58:36.929Z,0.50
2022-09-28T14:01:41.710Z,0.50
2022-09-28T14:04:59.100Z,0.70
2022-09-28T14:08:27.383Z,0.70
2022-09-28T14:11:34.253Z,0.50
2022-09-28T14:14:49.892Z,0.40
2022-09-28T14:18:08.437Z,0.70
2022-09-28T14:21:31.776Z,0.62
2022-09-28T14:24:33.865Z,0.60
2022-09-28T14:27:55.442Z,0.57
2022-09-28T14:30:58.911Z,0.70
2022-09-28T14:34:02.649Z,0.50
2022-09-28T14:37:35.063Z,0.60
2022-09-28T14:41:15.305Z,0.60
2022-09-28T14:44:17.960Z,0.68
2022-09-28T14:48:10.689Z,0.75
2022-09-28T14:51:24.617Z,0.70
2022-09-28T14:54:27.644Z,0.70
2022-09-28T14:57:31.452Z,0.75
2022-09-28T15:00:34.094Z,0.60
2022-09-28T15:03:38.329Z,0.50
2022-09-28T15:06:48.201Z,0.65
2022-09-28T15:09:52.630Z,1.02
2022-09-28T15:12:57.173Z,0.52
2022-09-28T15:16:08.914Z,0.60
2022-09-28T15:19:50.167Z,0.70
2022-09-28T15:22:57.314Z,1.00
2022-09-28T15:25:59.577Z,0.75
2022-09-28T15:29:04.645Z,0.70
2022-09-28T15:32:10.090Z,0.90
2022-09-28T15:35:17.276Z,1.02
2022-09-28T15:38:19.548Z,1.05
2022-09-28T15:41:24.993Z,0.70
2022-09-28T15:44:35.229Z,0.80
2022-09-28T15:47:40.047Z,0.62
2022-09-28T15:50:57.510Z,0.77
2022-09-28T15:54:19.544Z,0.90
2022-09-28T15:57:39.130Z,0.75
2022-09-28T16:00:42.408Z,0.90
2022-09-28T16:03:44.553Z,0.90
2022-09-28T16:07:24.558Z,1.67
2022-09-28T16:10:33.529Z,2.03
2022-09-28T16:13:36.992Z,1.95
2022-09-28T16:16:50.336Z,6.53
2022-09-28T16:19:52.528Z,3.20
2022-09-28T16:22:56.937Z,2.25
2022-09-28T16:26:08.820Z,1.30
2022-09-28T16:29:40.869Z,1.42
2022-09-28T16:33:06.718Z,2.40
2022-09-28T16:36:13.375Z,1.70
2022-09-28T16:39:17.077Z,1.95
2022-09-28T16:42:19.358Z,1.40
2022-09-28T16:45:23.827Z,1.42
2022-09-28T16:48:27.022Z,1.00
2022-09-28T16:51:29.471Z,1.52
2022-09-28T16:54:50.252Z,1.23
2022-09-28T16:57:52.421Z,2.62
2022-09-28T17:00:55.570Z,2.30
2022-09-28T17:03:57.789Z,1.80
2022-09-28T17:06:59.990Z,1.90
2022-09-28T17:10:02.206Z,3.10
2022-09-28T17:13:04.472Z,2.10
2022-09-28T17:16:14.474Z,1.70
2022-09-28T17:19:22.801Z,1.70
2022-09-28T17:22:24.966Z,1.60
2022-09-28T17:25:27.322Z,1.83
2022-09-28T17:28:34.254Z,1.87
2022-09-28T17:31:36.402Z,2.65
2022-09-28T17:34:38.559Z,2.50
2022-09-28T17:37:41.184Z,1.77
2022-09-28T17:40:45.469Z,1.50
2022-09-28T17:43:47.869Z,1.50
2022-09-28T17:46:51.067Z,1.58
2022-09-28T17:49:53.796Z,1.70
2022-09-28T17:52:58.029Z,2.20
2022-09-28T17:56:00.362Z,2.10
2022-09-28T17:59:05.594Z,1.90
2022-09-28T18:02:11.224Z,2.12
2022-09-28T18:05:16.771Z,1.90
2022-09-28T18:08:20.434Z,2.37
2022-09-28T18:11:22.807Z,1.55
2022-09-28T18:14:24.987Z,1.95
2022-09-28T18:17:27.166Z,2.00
2022-09-28T18:20:29.762Z,1.80
2022-09-28T18:23:32.018Z,2.30
2022-09-28T18:26:34.186Z,2.40
2022-09-28T18:29:36.376Z,2.65
2022-09-28T18:32:38.634Z,2.53
2022-09-28T18:35:41.166Z,2.15
2022-09-28T18:38:43.362Z,2.47
2022-09-28T18:41:45.525Z,1.98
2022-09-28T18:44:47.756Z,2.37
2022-09-28T18:47:49.972Z,2.22
2022-09-28T18:50:52.106Z,2.12
2022-09-28T18:53:54.315Z,3.03
2022-09-28T18:56:57.241Z,3.15
2022-09-28T19:00:05.262Z,2.65
2022-09-28T19:03:08.163Z,1.90
2022-09-28T19:06:15.550Z,1.80
2022-09-28T19:09:22.593Z,2.00
2022-09-28T19:12:24.759Z,2.00
2022-09-28T19:15:27.055Z,2.30
2022-09-28T19:18:32.359Z,2.20
2022-09-28T19:21:35.385Z,2.60
2022-09-28T19:24:37.565Z,2.53
2022-09-28T19:27:39.806Z,3.15
2022-09-28T19:30:42.155Z,2.83
2022-09-28T19:33:48.156Z,2.10
2022-09-28T19:36:50.350Z,2.35
2022-09-28T19:39:52.617Z,2.30
2022-09-28T19:42:54.780Z,2.15
2022-09-28T19:46:06.236Z,2.28
2022-09-28T19:49:14.447Z,2.20
2022-09-28T19:52:17.280Z,2.53
2022-09-28T19:55:21.118Z,2.20
2022-09-28T19:58:24.953Z,2.50
2022-09-28T20:01:28.070Z,1.92
2022-09-28T20:04:30.464Z,1.85
2022-09-28T20:07:34.730Z,1.70
2022-09-28T20:10:36.896Z,1.83
2022-09-28T20:13:39.409Z,1.90
2022-09-28T20:16:41.632Z,1.83
2022-09-28T20:19:43.859Z,2.12
2022-09-28T20:22:46.067Z,1.65
2022-09-28T20:25:52.420Z,1.87
2022-09-28T20:28:55.023Z,1.90
2022-09-28T20:31:57.728Z,1.70
2022-09-28T20:34:59.870Z,1.70
2022-09-28T20:38:08.078Z,1.95
2022-09-28T20:41:14.379Z,2.33
2022-09-28T20:44:16.808Z,1.70
2022-09-28T20:47:19.160Z,1.90
2022-09-28T20:50:22.012Z,1.90
2022-09-28T20:53:24.411Z,2.97
2022-09-28T20:56:28.605Z,1.77
2022-09-28T20:59:31.194Z,1.70
2022-09-28T21:02:33.358Z,1.62
2022-09-28T21:05:36.137Z,2.10
2022-09-28T21:08:38.264Z,1.70
2022-09-28T21:11:41.694Z,1.77
2022-09-28T21:14:43.966Z,2.17
2022-09-28T21:17:46.087Z,2.53
2022-09-28T21:20:49.486Z,2.00
2022-09-28T21:23:55.455Z,2.08
2022-09-28T21:26:58.428Z,2.17
2022-09-28T21:30:01.011Z,1.98
2022-09-28T21:33:03.172Z,2.10
2022-09-28T21:36:07.270Z,1.67
2022-09-28T21:39:10.522Z,1.92
2022-09-28T21:42:12.876Z,2.35
2022-09-28T21:45:15.170Z,2.30
2022-09-28T21:48:17.819Z,2.58
2022-09-28T21:51:19.965Z,2.40
2022-09-28T21:54:22.294Z,2.35
2022-09-28T21:57:24.455Z,2.83
2022-09-28T22:00:26.654Z,2.75
2022-09-28T22:03:29.890Z,1.98
2022-09-28T22:06:32.012Z,2.20
2022-09-28T22:09:34.367Z,2.55
2022-09-28T22:12:36.751Z,2.42
2022-09-28T22:15:39.220Z,2.22
2022-09-28T22:18:41.943Z,2.40
2022-09-28T22:21:44.312Z,2.42
2022-09-28T22:24:46.487Z,2.28
2022-09-28T22:27:48.683Z,2.40
2022-09-28T22:30:50.883Z,2.30
2022-09-28T22:33:53.890Z,2.30
2022-09-28T22:36:56.600Z,2.20
2022-09-28T22:40:00.789Z,2.35
2022-09-28T22:43:02.954Z,2.35
2022-09-28T22:46:07.261Z,2.53
2022-09-28T22:49:10.296Z,2.83
2022-09-28T22:52:12.447Z,2.50
2022-09-28T22:55:14.645Z,2.92
2022-09-28T22:58:16.921Z,2.78
2022-09-28T23:01:24.965Z,2.80
2022-09-28T23:04:27.227Z,2.55
2022-09-28T23:07:29.381Z,2.53
2022-09-28T23:10:31.700Z,2.90
2022-09-28T23:13:35.094Z,2.60
2022-09-28T23:16:37.278Z,2.53
2022-09-28T23:19:39.489Z,2.87
2022-09-28T23:22:45.992Z,2.67
2022-09-28T23:25:48.229Z,3.33
2022-09-28T23:28:50.820Z,3.03
2022-09-28T23:31:52.948Z,3.22
2022-09-28T23:34:55.249Z,3.45
2022-09-28T23:37:57.374Z,3.37
2022-09-28T23:40:59.623Z,3.62
2022-09-28T23:44:02.032Z,3.28
2022-09-28T23:47:04.251Z,3.78
2022-09-28T23:50:06.904Z,3.20
2022-09-28T23:53:09.768Z,3.10
2022-09-28T23:56:12.643Z,3.20
2022-09-28T23:59:14.879Z,3.30
